Time;durP1;ratioP1;P1;durP2;ratioP2;P2;SDS_P1;SDS_P2;PMS_P1;PMS_P2;Temp;Humidity;BMP_temperature;BMP_pressure;BME280_temperature;BME280_humidity;BME280_pressure;Samples;Min_cycle;Max_cycle;Signal;HPM_P1;HPM_P2
2021/03/21 00:00:49;;;;;;;2.50;1.10;;;;;;;16.81;65.66;102625.50;6196096;23;20028;-77
2021/03/21 00:03:16;;;;;;;3.13;0.82;;;;;;;16.81;65.79;102622.91;6195275;23;20048;-78
2021/03/21 00:05:43;;;;;;;4.25;0.95;;;;;;;16.81;65.75;102631.59;6193906;23;20015;-77
2021/03/21 00:08:18;;;;;;;2.22;0.93;;;;;;;16.81;65.27;102625.50;6169476;23;20091;-77
2021/03/21 00:10:53;;;;;;;1.67;0.73;;;;;;;16.79;65.28;102619.38;6220718;23;20003;-77
2021/03/21 00:13:20;;;;;;;2.78;0.80;;;;;;;16.79;65.46;102620.25;6193282;23;20055;-78
2021/03/21 00:15:46;;;;;;;2.08;0.90;;;;;;;16.81;65.65;102622.91;6170513;23;20005;-77
2021/03/21 00:18:12;;;;;;;2.17;0.88;;;;;;;16.81;65.34;102615.09;6193128;23;20005;-77
2021/03/21 00:20:39;;;;;;;2.92;0.98;;;;;;;16.79;65.40;102614.19;6194225;23;20077;-77
2021/03/21 00:23:05;;;;;;;3.60;0.80;;;;;;;16.80;65.33;102606.44;6195565;23;20031;-77
2021/03/21 00:25:33;;;;;;;1.73;0.90;;;;;;;16.79;65.51;102604.66;6221142;23;20005;-77
2021/03/21 00:28:00;;;;;;;2.42;0.90;;;;;;;16.77;65.20;102595.94;6219615;23;20051;-77
2021/03/21 00:30:30;;;;;;;2.63;0.88;;;;;;;16.79;65.23;102598.59;6220108;23;20317;-77
2021/03/21 00:32:56;;;;;;;1.48;0.63;;;;;;;16.79;65.06;102599.47;6192640;23;20435;-77
2021/03/21 00:35:21;;;;;;;2.83;0.75;;;;;;;16.79;65.22;102603.78;6170424;23;20082;-77
2021/03/21 00:37:48;;;;;;;1.73;0.80;;;;;;;16.79;65.58;102599.47;6195362;23;20337;-77
2021/03/21 00:40:18;;;;;;;2.97;0.80;;;;;;;16.78;65.56;102589.03;6225519;23;20004;-77
2021/03/21 00:42:45;;;;;;;1.55;0.60;;;;;;;16.77;65.21;102584.69;6225864;23;20004;-77
2021/03/21 00:45:13;;;;;;;1.35;0.68;;;;;;;16.78;65.04;102581.22;6227098;23;20023;-77
2021/03/21 00:47:38;;;;;;;1.85;0.80;;;;;;;16.78;64.87;102586.41;6226071;23;20001;-77
2021/03/21 00:50:08;;;;;;;1.70;0.75;;;;;;;16.77;65.11;102574.28;6175052;23;20043;-77
2021/03/21 00:52:34;;;;;;;1.27;0.70;;;;;;;16.78;64.80;102581.22;6197394;23;20457;-77
2021/03/21 00:54:59;;;;;;;1.88;0.82;;;;;;;16.75;64.40;102575.97;6196992;23;20068;-77
2021/03/21 00:57:24;;;;;;;1.25;0.60;;;;;;;16.77;64.87;102582.94;6196196;23;20005;-77
2021/03/21 00:59:50;;;;;;;1.80;0.70;;;;;;;16.77;64.71;102580.34;6195520;23;20082;-77
2021/03/21 01:02:15;;;;;;;3.53;0.82;;;;;;;16.77;64.94;102580.34;6218683;23;20032;-77
2021/03/21 01:04:41;;;;;;;2.30;0.77;;;;;;;16.76;64.30;102577.72;6222098;23;20004;-77
2021/03/21 01:07:08;;;;;;;1.45;0.68;;;;;;;16.74;65.18;102574.19;6170902;23;20091;-77
2021/03/21 01:09:33;;;;;;;0.90;0.60;;;;;;;16.76;64.69;102575.97;6218865;23;20082;-77
2021/03/21 01:11:58;;;;;;;1.23;0.70;;;;;;;16.74;64.74;102575.06;6220210;23;20020;-77
2021/03/21 01:14:24;;;;;;;1.45;0.60;;;;;;;16.74;64.30;102571.59;6167880;23;20059;-77
2021/03/21 01:16:50;;;;;;;1.48;0.60;;;;;;;16.77;64.85;102569.09;6190999;23;20012;-77
2021/03/21 01:19:21;;;;;;;1.00;0.50;;;;;;;16.75;64.32;102568.16;6167730;23;20091;-77
2021/03/21 01:21:48;;;;;;;3.70;0.70;;;;;;;16.76;64.65;102562.09;6190661;23;20019;-77
2021/03/21 01:24:16;;;;;;;0.80;0.50;;;;;;;16.75;64.34;102553.44;6214999;23;20005;-77
2021/03/21 01:26:42;;;;;;;1.75;0.70;;;;;;;16.75;64.38;102550.84;6218469;23;20397;-77
2021/03/21 01:29:08;;;;;;;1.42;0.60;;;;;;;16.76;64.62;102551.72;6192049;23;20072;-77
2021/03/21 01:31:34;;;;;;;1.10;0.50;;;;;;;16.75;64.39;102542.16;6191985;23;20055;-77
2021/03/21 01:33:59;;;;;;;1.70;0.50;;;;;;;16.75;64.61;102535.25;6194329;23;20031;-77
2021/03/21 01:36:35;;;;;;;1.10;0.60;;;;;;;16.74;64.18;102538.66;6168778;23;20001;-77
2021/03/21 01:39:07;;;;;;;0.95;0.55;;;;;;;16.74;64.39;102520.47;6194568;23;20026;-77
2021/03/21 01:41:36;;;;;;;1.52;0.60;;;;;;;16.75;64.39;102509.25;6194975;23;20024;-77
2021/03/21 01:44:06;;;;;;;1.20;0.60;;;;;;;16.75;64.38;102501.44;6222009;23;20055;-77
2021/03/21 01:46:34;;;;;;;1.30;0.65;;;;;;;16.75;65.10;102509.25;6194220;23;19997;-77
2021/03/21 01:49:03;;;;;;;1.38;0.70;;;;;;;16.75;64.32;102517.03;6196062;23;20000;-77
2021/03/21 01:51:36;;;;;;;2.22;0.60;;;;;;;16.73;64.19;102513.53;6195123;23;20527;-77
2021/03/21 01:54:11;;;;;;;1.38;0.50;;;;;;;16.73;64.30;102508.34;6194906;23;20059;-77
2021/03/21 01:56:38;;;;;;;1.25;0.70;;;;;;;16.75;64.34;102508.38;6221358;23;20375;-77
2021/03/21 01:59:08;;;;;;;1.02;0.52;;;;;;;16.74;64.80;102510.06;6194797;23;20027;-77
2021/03/21 02:01:34;;;;;;;0.90;0.60;;;;;;;16.73;64.26;102503.13;6195737;23;20016;-78
2021/03/21 02:04:00;;;;;;;2.22;0.50;;;;;;;16.75;64.22;102497.97;6203722;23;20012;-77
2021/03/21 02:06:34;;;;;;;1.02;0.50;;;;;;;16.74;64.42;102491.00;6205893;23;20000;-77
2021/03/21 02:09:37;;;;;;;1.05;0.68;;;;;;;16.74;64.29;102491.88;6210439;22;20019;-77
2021/03/21 02:12:40;;;;;;;1.20;0.70;;;;;;;16.74;64.58;102496.19;6263013;22;20011;-77
2021/03/21 02:15:25;;;;;;;0.73;0.52;;;;;;;16.73;64.22;102492.72;6289050;22;20029;-77
2021/03/21 02:18:23;;;;;;;1.55;0.65;;;;;;;16.74;64.73;102491.88;6262290;22;20196;-78
2021/03/21 02:20:54;;;;;;;1.23;0.77;;;;;;;16.75;63.99;102498.84;6245687;22;20047;-78
2021/03/21 02:23:53;;;;;;;1.08;0.65;;;;;;;16.75;64.34;102495.38;6206830;23;20424;-78
2021/03/21 02:26:27;;;;;;;0.82;0.60;;;;;;;16.74;64.45;102491.88;6203781;23;20001;-78
2021/03/21 02:29:13;;;;;;;1.13;0.65;;;;;;;16.75;64.44;102495.38;6204797;23;20016;-77
2021/03/21 02:31:50;;;;;;;1.45;0.60;;;;;;;16.75;64.36;102488.44;6227315;23;20060;-77
2021/03/21 02:34:20;;;;;;;1.58;0.80;;;;;;;16.74;64.25;102480.59;6206316;22;20012;-77
2021/03/21 02:36:51;;;;;;;2.22;0.80;;;;;;;16.73;64.41;102484.06;6278042;22;20036;-77
2021/03/21 02:39:27;;;;;;;1.80;0.73;;;;;;;16.72;64.36;102466.69;6264396;22;20015;-77
2021/03/21 02:42:03;;;;;;;0.75;0.50;;;;;;;16.73;64.35;102481.47;6263770;22;20034;-77
2021/03/21 02:44:36;;;;;;;2.83;0.70;;;;;;;16.72;64.33;102490.97;6289710;22;20003;-77
2021/03/21 02:47:12;;;;;;;1.30;0.80;;;;;;;16.72;64.11;102487.50;6289571;22;20000;-77
2021/03/21 02:49:43;;;;;;;1.63;0.68;;;;;;;16.74;64.31;102498.81;6263201;22;20374;-77
2021/03/21 02:52:23;;;;;;;1.27;0.80;;;;;;;16.73;64.14;102503.13;6265702;22;20058;-77
2021/03/21 02:55:18;;;;;;;1.02;0.70;;;;;;;16.74;64.52;102501.41;6264777;22;20030;-77
2021/03/21 02:57:49;;;;;;;1.83;0.80;;;;;;;16.73;64.28;102497.06;6261662;22;20335;-78
2021/03/21 03:00:16;;;;;;;1.65;1.00;;;;;;;16.71;63.66;102494.41;6289759;22;20007;-78
2021/03/21 03:02:51;;;;;;;1.65;0.90;;;;;;;16.71;64.32;102497.03;6262566;22;20010;-77
2021/03/21 03:05:23;;;;;;;1.10;0.77;;;;;;;16.72;64.34;102498.75;6265342;22;20004;-77
2021/03/21 03:08:01;;;;;;;1.88;0.90;;;;;;;16.72;64.19;102497.91;6264257;22;20015;-77
2021/03/21 03:10:37;;;;;;;1.40;0.85;;;;;;;16.73;64.17;102494.47;6264774;22;20086;-77
2021/03/21 03:13:16;;;;;;;1.33;0.90;;;;;;;16.71;64.12;102497.03;6264538;22;20345;-77
2021/03/21 03:15:43;;;;;;;1.17;0.75;;;;;;;16.71;64.08;102509.16;6264813;22;20083;-77
2021/03/21 03:18:27;;;;;;;0.98;0.70;;;;;;;16.70;64.18;102500.47;6293879;22;20041;-77
2021/03/21 03:20:54;;;;;;;;;;;;;;;16.72;63.88;102500.50;6295312;22;20004;-77
2021/03/21 03:23:28;;;;;;;1.75;0.73;;;;;;;16.71;64.10;102504.81;6269804;22;19907;-78
2021/03/21 03:26:05;;;;;;;1.30;0.60;;;;;;;16.69;64.10;102505.63;6263737;22;20047;-77
2021/03/21 03:28:42;;;;;;;1.15;0.68;;;;;;;16.70;64.09;102510.88;6266227;23;20008;-77
2021/03/21 03:31:18;;;;;;;0.85;0.68;;;;;;;16.70;64.06;102517.78;6269280;22;19996;-77
2021/03/21 03:33:43;;;;;;;1.00;0.70;;;;;;;16.71;64.12;102516.94;6266461;23;20004;-77
2021/03/21 03:36:16;;;;;;;1.33;0.70;;;;;;;16.70;64.12;102516.09;6267243;23;20003;-77
2021/03/21 03:38:45;;;;;;;1.90;0.80;;;;;;;16.69;63.87;102518.63;6267182;23;20007;-78
2021/03/21 03:41:19;;;;;;;2.10;0.80;;;;;;;16.70;64.18;102522.97;6266995;23;20000;-78
2021/03/21 03:43:48;;;;;;;1.80;0.77;;;;;;;16.70;64.05;102517.78;6267936;23;19996;-77
2021/03/21 03:46:23;;;;;;;1.85;0.80;;;;;;;16.70;63.81;102520.38;6268413;23;19995;-78
2021/03/21 03:49:04;;;;;;;1.25;0.70;;;;;;;16.69;63.39;102523.84;6269015;23;20060;-77
2021/03/21 03:52:01;;;;;;;1.95;0.70;;;;;;;16.68;63.82;102507.38;6270145;23;20000;-77
2021/03/21 03:54:31;;;;;;;1.30;0.63;;;;;;;16.67;63.98;102514.28;6270021;23;20008;-78
2021/03/21 03:57:09;;;;;;;1.30;0.70;;;;;;;16.68;63.69;102517.78;6269631;23;20007;-77
2021/03/21 03:59:59;;;;;;;1.38;0.70;;;;;;;16.69;63.78;102513.44;6269957;23;20012;-77
2021/03/21 04:02:56;;;;;;;0.90;0.50;;;;;;;16.67;63.62;102511.66;6270235;23;20050;-77
2021/03/21 04:05:31;;;;;;;1.40;0.80;;;;;;;16.66;63.74;102504.72;6271093;23;20063;-77
2021/03/21 04:10:45;;;;;;;1.27;0.63;;;;;;;16.69;64.11;102510.84;6271704;22;20398;-77
2021/03/21 04:13:27;;;;;;;0.88;0.65;;;;;;;16.69;63.59;102511.72;6245108;22;20015;-77
2021/03/21 04:15:54;;;;;;;1.05;0.70;;;;;;;16.66;63.64;102507.34;6245439;23;20010;-78
2021/03/21 04:18:40;;;;;;;0.95;0.55;;;;;;;16.67;63.57;102510.78;6244564;23;20051;-77
2021/03/21 04:21:29;;;;;;;1.27;0.80;;;;;;;16.67;63.83;102514.28;6271981;22;20011;-77
2021/03/21 04:24:06;;;;;;;1.45;0.60;;;;;;;16.66;63.45;102515.13;6243029;23;20011;-78
2021/03/21 04:26:45;;;;;;;1.05;0.60;;;;;;;16.67;63.68;102509.06;6242220;23;20004;-77
2021/03/21 04:29:20;;;;;;;0.95;0.60;;;;;;;16.66;63.71;102496.94;6269856;23;20026;-77
2021/03/21 04:31:49;;;;;;;0.82;0.60;;;;;;;16.67;63.91;102508.19;6242348;23;20000;-77
2021/03/21 04:34:17;;;;;;;0.95;0.50;;;;;;;16.65;63.38;102502.09;6268074;23;20000;-78
2021/03/21 04:36:46;;;;;;;1.35;0.70;;;;;;;16.66;63.24;102506.47;6241323;23;20038;-77
2021/03/21 04:39:23;;;;;;;1.08;0.60;;;;;;;16.64;63.69;102506.41;6239819;23;20008;-78
2021/03/21 04:42:24;;;;;;;1.05;0.70;;;;;;;16.63;63.71;102502.03;6263856;23;20004;-77
2021/03/21 04:44:58;;;;;;;1.05;0.63;;;;;;;16.66;63.73;102514.25;6221616;23;20004;-77
2021/03/21 04:47:27;;;;;;;1.17;0.70;;;;;;;16.66;63.39;102516.84;6246419;22;20020;-77
2021/03/21 04:49:57;;;;;;;2.65;0.70;;;;;;;16.63;63.71;102504.66;6273096;22;19984;-77
2021/03/21 04:52:41;;;;;;;1.50;0.60;;;;;;;16.66;63.53;102507.34;6273313;22;20015;-77
2021/03/21 04:55:12;;;;;;;1.33;0.60;;;;;;;16.64;63.43;102498.63;6271031;22;20060;-77
2021/03/21 04:57:46;;;;;;;1.08;0.50;;;;;;;16.63;63.50;102493.38;6272636;22;19984;-78
2021/03/21 05:00:28;;;;;;;0.63;0.50;;;;;;;16.64;63.45;102501.22;6238416;23;20013;-77
2021/03/21 05:03:07;;;;;;;1.10;0.52;;;;;;;16.65;63.32;102499.50;6237457;23;20002;-78
2021/03/21 05:06:17;;;;;;;1.30;0.70;;;;;;;16.65;63.38;102504.69;6234998;23;20053;-77
2021/03/21 05:08:53;;;;;;;1.05;0.60;;;;;;;16.64;63.26;102498.63;6234978;23;20011;-77
2021/03/21 05:11:20;;;;;;;1.52;0.60;;;;;;;16.64;63.33;102509.03;6232465;23;20032;-77
2021/03/21 05:13:58;;;;;;;1.80;0.70;;;;;;;16.65;63.07;102510.75;6261616;23;20000;-78
2021/03/21 05:17:00;;;;;;;1.00;0.60;;;;;;;16.64;63.28;102502.94;6236045;23;20032;-77
2021/03/21 05:20:05;;;;;;;1.15;0.70;;;;;;;16.64;63.40;102505.53;6234289;23;20100;-77
2021/03/21 05:23:05;;;;;;;1.20;0.60;;;;;;;16.64;63.16;102506.41;6261035;23;20071;-77
2021/03/21 05:25:39;;;;;;;1.73;0.68;;;;;;;16.65;63.26;102512.50;6261213;23;20007;-77
2021/03/21 05:28:15;;;;;;;1.05;0.60;;;;;;;16.65;63.25;102517.69;6235853;23;20011;-77
2021/03/21 05:30:40;;;;;;;1.10;0.52;;;;;;;16.63;63.25;102517.66;6261205;23;20004;-78
2021/03/21 05:33:07;;;;;;;2.10;0.70;;;;;;;16.63;63.15;102516.78;6260953;23;20024;-77
2021/03/21 05:35:36;;;;;;;1.85;0.80;;;;;;;16.63;63.44;102514.19;6209057;23;20383;-77
2021/03/21 05:38:30;;;;;;;1.05;0.60;;;;;;;16.63;63.28;102502.03;6261790;23;20004;-77
2021/03/21 05:41:19;;;;;;;1.63;0.60;;;;;;;16.63;63.47;102515.03;6261462;23;20074;-77
2021/03/21 05:44:21;;;;;;;2.60;0.85;;;;;;;16.63;63.11;102516.78;6232361;23;20001;-77
2021/03/21 05:47:18;;;;;;;1.90;0.60;;;;;;;16.63;63.11;102521.97;6258615;23;20026;-77
2021/03/21 05:49:50;;;;;;;1.60;0.70;;;;;;;16.63;63.10;102533.25;6259411;23;20382;-77
2021/03/21 05:52:53;;;;;;;7.18;0.95;;;;;;;16.65;63.04;102541.06;6232294;23;20024;-78
2021/03/21 05:55:33;;;;;;;4.45;0.80;;;;;;;16.64;62.68;102540.22;6247223;22;20111;-77
2021/03/21 05:58:20;;;;;;;3.35;0.60;;;;;;;16.64;62.95;102540.22;6259174;23;20027;-77
2021/03/21 06:00:48;;;;;;;1.52;0.60;;;;;;;16.67;62.70;102552.38;6258222;23;20060;-78
2021/03/21 06:03:45;;;;;;;1.90;0.75;;;;;;;16.67;62.43;102550.66;6256428;23;20007;-77
2021/03/21 06:06:49;;;;;;;1.15;0.63;;;;;;;16.65;62.43;102543.69;6257204;23;20004;-77
2021/03/21 06:09:28;;;;;;;1.83;0.70;;;;;;;16.69;62.36;102562.81;6251671;23;20019;-78
2021/03/21 06:12:13;;;;;;;1.45;0.68;;;;;;;16.68;61.84;102559.34;6258717;23;20075;-77
2021/03/21 06:15:14;;;;;;;0.73;0.50;;;;;;;16.69;61.87;102553.31;6259557;23;20064;-78
2021/03/21 06:17:58;;;;;;;1.17;0.50;;;;;;;16.70;61.75;102560.28;6257846;22;20000;-77
2021/03/21 06:20:33;;;;;;;1.55;0.70;;;;;;;16.69;61.70;102555.91;6253578;23;20004;-77
2021/03/21 06:23:09;;;;;;;1.60;0.70;;;;;;;16.70;61.68;102557.69;6256037;23;20040;-77
2021/03/21 06:25:37;;;;;;;1.80;0.77;;;;;;;16.71;61.56;102563.75;6257953;22;20070;-77
2021/03/21 06:28:22;;;;;;;1.92;0.70;;;;;;;16.72;61.43;102565.47;6252505;22;20023;-77
2021/03/21 06:31:05;;;;;;;1.83;0.60;;;;;;;16.72;61.26;102565.47;6233213;23;20013;-77
2021/03/21 06:34:02;;;;;;;1.85;0.70;;;;;;;16.72;61.24;102571.56;6233898;23;20031;-77
2021/03/21 06:36:44;;;;;;;1.05;0.52;;;;;;;16.71;61.19;102566.34;6229647;23;20003;-77
2021/03/21 06:39:30;;;;;;;1.58;0.70;;;;;;;16.73;60.82;102570.72;6234264;23;20005;-77
2021/03/21 06:42:06;;;;;;;1.63;0.70;;;;;;;16.72;61.17;102578.47;6236223;23;20012;-77
2021/03/21 06:44:50;;;;;;;1.75;0.75;;;;;;;16.73;60.86;102582.84;6236317;23;20081;-78
2021/03/21 06:47:40;;;;;;;1.50;0.57;;;;;;;16.75;61.06;102584.63;6235413;23;19997;-77
2021/03/21 06:50:30;;;;;;;1.90;0.70;;;;;;;16.77;60.80;102575.16;6234764;23;20008;-77
2021/03/21 06:53:22;;;;;;;2.15;0.70;;;;;;;16.77;60.77;102579.47;6235592;23;20008;-77
2021/03/21 06:55:54;;;;;;;1.23;0.60;;;;;;;16.77;60.53;102576.88;6234123;23;20000;-77
2021/03/21 06:58:40;;;;;;;1.13;0.70;;;;;;;16.77;60.50;102579.47;6234074;23;20056;-77
2021/03/21 07:01:27;;;;;;;2.90;0.82;;;;;;;16.76;60.80;102578.56;6230887;23;20068;-77
2021/03/21 07:04:31;;;;;;;1.55;0.63;;;;;;;16.80;60.74;102590.84;6233220;23;19999;-77
2021/03/21 07:07:24;;;;;;;3.17;0.90;;;;;;;16.80;60.62;102590.84;6235940;23;20025;-77
2021/03/21 07:09:55;;;;;;;1.92;0.75;;;;;;;16.80;60.71;102593.44;6237797;23;19999;-77
2021/03/21 07:12:45;;;;;;;2.25;0.70;;;;;;;16.78;60.70;102599.41;6238482;23;20007;-77
2021/03/21 07:15:26;;;;;;;3.28;0.90;;;;;;;16.77;60.92;102603.75;6236826;23;20005;-78
2021/03/21 07:17:54;;;;;;;4.90;0.80;;;;;;;16.77;60.87;102610.69;6233642;23;20055;-77
2021/03/21 07:21:12;;;;;;;2.30;0.70;;;;;;;16.75;60.92;102605.44;6232869;23;19997;-77
2021/03/21 07:24:25;;;;;;;1.85;0.68;;;;;;;16.77;61.05;102608.94;6173809;23;20011;-78
2021/03/21 07:27:11;;;;;;;2.20;0.70;;;;;;;16.78;61.01;102608.09;6223169;23;20012;-78
2021/03/21 07:30:00;;;;;;;3.38;0.80;;;;;;;16.80;61.17;102611.63;6232103;23;20027;-78
2021/03/21 07:33:15;;;;;;;3.42;0.77;;;;;;;16.82;60.79;102602.16;6233841;23;20011;-78
2021/03/21 07:36:12;;;;;;;2.30;0.85;;;;;;;16.88;60.68;102605.75;6231008;23;20384;-78
2021/03/21 07:39:11;;;;;;;3.05;0.80;;;;;;;16.89;60.73;102604.88;6236206;22;20071;-78
2021/03/21 07:41:57;;;;;;;1.17;0.60;;;;;;;16.87;61.13;102607.44;6249336;22;20085;-78
2021/03/21 07:44:48;;;;;;;2.17;0.60;;;;;;;16.87;60.81;102599.66;6263585;22;20003;-78
2021/03/21 07:47:44;;;;;;;2.08;0.70;;;;;;;16.86;60.89;102596.16;6259999;22;20007;-78
2021/03/21 07:50:34;;;;;;;2.45;0.70;;;;;;;16.86;60.99;102603.97;6288050;22;20007;-77
2021/03/21 07:53:14;;;;;;;2.95;0.70;;;;;;;16.86;61.04;102611.78;6285593;22;19996;-77
2021/03/21 07:55:40;;;;;;;2.53;0.90;;;;;;;16.88;60.79;102609.22;6258462;22;20042;-77
2021/03/21 07:58:21;;;;;;;1.83;0.80;;;;;;;16.89;60.69;102612.69;6257172;22;20415;-78
2021/03/21 08:00:48;;;;;;;2.35;0.60;;;;;;;16.91;60.52;102614.47;6283924;22;20008;-78
2021/03/21 08:03:13;;;;;;;1.50;0.68;;;;;;;16.93;60.48;102617.13;6233533;22;19999;-77
2021/03/21 08:05:42;;;;;;;1.40;0.60;;;;;;;16.91;60.25;102617.06;6261859;22;20014;-78
2021/03/21 08:08:16;;;;;;;2.40;0.73;;;;;;;16.93;60.20;102623.19;6262572;22;20011;-79
2021/03/21 08:10:41;;;;;;;;;;;;;;;16.94;60.57;102622.34;6290363;22;20070;-78
2021/03/21 08:13:22;;;;;;;2.00;0.55;;;;;;;16.96;60.41;102623.28;6263690;22;19907;-78
2021/03/21 08:15:48;;;;;;;1.48;0.60;;;;;;;16.95;60.16;102631.03;6289451;22;20091;-78
2021/03/21 08:18:35;;;;;;;2.83;0.70;;;;;;;16.94;60.34;102626.66;6236746;22;20027;-78
2021/03/21 08:21:05;;;;;;;1.90;0.70;;;;;;;16.96;60.31;102631.06;6289987;22;20008;-78
2021/03/21 08:23:40;;;;;;;1.90;0.73;;;;;;;16.94;60.26;102619.75;6264943;22;20453;-78
2021/03/21 08:26:12;;;;;;;3.15;0.85;;;;;;;16.94;60.11;102624.97;6261587;22;20006;-78
2021/03/21 08:29:11;;;;;;;1.70;0.80;;;;;;;16.96;60.14;102627.56;6263875;22;20063;-78
2021/03/21 08:31:46;;;;;;;2.30;0.65;;;;;;;16.96;60.03;102632.78;6289480;22;20054;-78
2021/03/21 08:34:24;;;;;;;1.88;0.70;;;;;;;16.96;59.83;102631.06;6290136;22;20038;-78
2021/03/21 08:36:49;;;;;;;3.38;1.10;;;;;;;16.97;59.90;102647.53;6264757;22;20010;-78
2021/03/21 08:39:22;;;;;;;3.35;0.70;;;;;;;16.97;60.07;102650.16;6265401;22;20059;-78
2021/03/21 08:41:56;;;;;;;2.20;0.77;;;;;;;16.97;59.93;102653.63;6290580;22;20046;-78
2021/03/21 08:44:39;;;;;;;3.33;0.90;;;;;;;16.96;59.90;102654.47;6292604;22;19999;-79
2021/03/21 08:47:14;;;;;;;2.17;0.75;;;;;;;16.98;59.89;102660.56;6264605;22;20000;-78
2021/03/21 08:49:46;;;;;;;2.08;0.70;;;;;;;17.00;59.83;102648.47;6264977;22;20093;-78
2021/03/21 08:52:26;;;;;;;3.20;0.63;;;;;;;17.01;59.80;102655.44;6262689;22;20003;-78
2021/03/21 08:54:52;;;;;;;2.33;0.70;;;;;;;17.03;59.74;102658.97;6267611;22;20007;-78
2021/03/21 08:57:34;;;;;;;1.55;0.80;;;;;;;17.06;59.55;102656.41;6257230;22;20012;-78
2021/03/21 09:00:14;;;;;;;1.95;0.75;;;;;;;17.07;59.54;102662.47;6208471;22;20192;-77
2021/03/21 09:02:40;;;;;;;2.65;1.00;;;;;;;17.10;59.46;102654.75;6265145;22;20485;-78
2021/03/21 09:05:08;;;;;;;1.63;0.70;;;;;;;17.10;59.44;102657.38;6242722;22;20012;-78
2021/03/21 09:07:39;;;;;;;2.85;0.80;;;;;;;17.15;59.21;102662.66;6270140;22;20010;-78
2021/03/21 09:10:11;;;;;;;3.15;0.90;;;;;;;17.19;59.26;102656.69;6268344;22;20419;-78
2021/03/21 09:12:50;;;;;;;3.20;0.77;;;;;;;17.22;59.18;102657.63;6239559;22;20036;-78
2021/03/21 09:15:27;;;;;;;2.35;0.98;;;;;;;17.21;59.04;102661.06;6208550;23;20064;-78
2021/03/21 09:18:06;;;;;;;2.90;0.73;;;;;;;17.20;59.20;102661.03;6233956;23;20008;-78
2021/03/21 09:20:34;;;;;;;4.65;1.00;;;;;;;17.17;59.01;102658.38;6207848;23;20465;-77
2021/03/21 09:23:24;;;;;;;2.22;0.65;;;;;;;17.14;59.09;102656.59;6233666;23;20305;-77
2021/03/21 09:25:53;;;;;;;13.10;3.15;;;;;;;17.28;58.80;102657.75;6232772;23;20004;-78
2021/03/21 09:28:19;;;;;;;16.05;2.78;;;;;;;17.36;58.39;102660.50;6232713;23;19996;-78
2021/03/21 09:30:47;;;;;;;17.40;2.80;;;;;;;17.38;58.51;102653.63;6176706;23;20001;-78
2021/03/21 09:33:31;;;;;;;7.45;2.28;;;;;;;17.41;58.43;102668.41;6199199;23;20005;-78
2021/03/21 09:36:23;;;;;;;10.40;2.45;;;;;;;17.45;58.45;102680.66;6176024;23;20011;-77
2021/03/21 09:39:10;;;;;;;6.25;2.40;;;;;;;17.44;58.26;102666.75;6202006;23;20000;-78
2021/03/21 09:41:36;;;;;;;7.40;1.92;;;;;;;17.44;58.41;102684.06;6199661;23;20004;-78
2021/03/21 09:44:05;;;;;;;9.25;2.22;;;;;;;17.46;58.03;102682.38;6176882;23;20020;-77
2021/03/21 09:46:51;;;;;;;10.15;2.30;;;;;;;17.48;58.36;102691.09;6199247;23;20062;-77
2021/03/21 09:49:46;;;;;;;7.20;1.92;;;;;;;17.48;58.09;102686.81;6225775;23;20434;-77
2021/03/21 09:52:47;;;;;;;7.50;1.92;;;;;;;17.48;58.22;102692.00;6203344;23;20329;-77
2021/03/21 09:55:31;;;;;;;6.55;1.83;;;;;;;17.50;58.52;102702.44;6231525;23;20036;-77
2021/03/21 09:58:08;;;;;;;;;;;;;;;17.58;57.87;102697.38;6200447;23;20009;-78
2021/03/21 10:00:38;;;;;;;6.47;1.95;;;;;;;17.60;57.52;102701.78;6228434;23;19908;-77
2021/03/21 10:03:33;;;;;;;11.73;1.77;;;;;;;17.61;57.71;102700.91;6231175;23;20007;-78
2021/03/21 10:11:28;;;;;;;6.53;1.50;;;;;;;17.63;57.40;102719.19;6252888;22;20035;-77
2021/03/21 10:13:55;;;;;;;5.05;1.65;;;;;;;17.64;57.32;102723.56;6283780;22;20011;-77
2021/03/21 10:16:27;;;;;;;5.63;1.52;;;;;;;17.64;57.25;102719.22;6254935;22;20012;-77
2021/03/21 10:21:31;;;;;;;5.03;1.60;;;;;;;17.63;57.04;102709.63;6290680;22;20061;-77
2021/03/21 10:23:58;;;;;;;3.17;1.40;;;;;;;17.67;56.90;102719.25;6269654;22;20022;-77
2021/03/21 10:26:27;;;;;;;3.15;1.27;;;;;;;17.67;56.91;102716.66;6269816;22;19999;-78
2021/03/21 10:31:36;;;;;;;4.85;1.58;;;;;;;17.69;56.81;102707.16;6201157;22;20015;-76
2021/03/21 10:34:10;;;;;;;5.28;1.63;;;;;;;17.77;57.05;102706.41;6196776;22;20024;-76
2021/03/21 10:36:39;;;;;;;4.43;1.70;;;;;;;17.83;56.51;102710.09;6246183;22;20063;-77
2021/03/21 10:39:32;;;;;;;5.55;1.35;;;;;;;17.86;56.41;102717.94;6249292;23;20078;-78
2021/03/21 10:42:09;;;;;;;5.13;1.50;;;;;;;17.89;56.33;102712.78;6248396;23;20501;-77
2021/03/21 10:44:34;;;;;;;3.95;1.35;;;;;;;17.88;56.54;102720.59;6247740;23;20075;-78
2021/03/21 10:47:09;;;;;;;3.78;1.60;;;;;;;17.85;56.42;102725.72;6244216;23;20000;-78
2021/03/21 10:49:51;;;;;;;4.20;1.27;;;;;;;17.88;56.58;102736.22;6250247;23;20435;-78
2021/03/21 10:52:25;;;;;;;4.15;1.30;;;;;;;17.89;56.21;102736.22;6250457;23;20066;-77
2021/03/21 10:55:18;;;;;;;4.30;1.67;;;;;;;17.93;56.33;102725.88;6248759;23;20027;-78
2021/03/21 10:57:45;;;;;;;3.63;1.40;;;;;;;17.93;56.38;102724.16;6233488;23;20012;-77
2021/03/21 11:00:26;;;;;;;3.28;1.27;;;;;;;17.89;56.18;102725.81;6249405;22;19996;-77
2021/03/21 11:02:58;;;;;;;3.55;1.27;;;;;;;17.88;56.16;102725.78;6223056;23;20057;-77
2021/03/21 11:05:25;;;;;;;3.50;1.40;;;;;;;17.86;56.01;102728.34;6247837;23;20000;-78
2021/03/21 11:08:28;;;;;;;4.68;1.58;;;;;;;17.85;56.29;102725.72;6249378;23;20419;-78
2021/03/21 11:11:13;;;;;;;4.20;1.60;;;;;;;17.84;56.15;102734.38;6261234;23;20039;-79
2021/03/21 11:13:39;;;;;;;5.70;1.40;;;;;;;17.83;56.08;102730.91;6261235;22;20034;-78
2021/03/21 11:16:13;;;;;;;4.68;1.40;;;;;;;17.80;56.24;102725.59;6261656;23;20004;-77
2021/03/21 11:18:43;;;;;;;3.35;1.25;;;;;;;17.79;56.60;102720.34;6257016;23;20084;-79
2021/03/21 11:21:37;;;;;;;5.85;1.58;;;;;;;17.80;56.18;102737.75;6284070;22;20008;-78
2021/03/21 11:24:25;;;;;;;3.40;1.45;;;;;;;17.78;56.10;102737.72;6255624;22;20031;-78
2021/03/21 11:26:52;;;;;;;4.07;1.48;;;;;;;17.78;56.09;102734.22;6255828;22;20003;-79
2021/03/21 11:29:24;;;;;;;4.65;1.67;;;;;;;17.80;56.38;102736.00;6255382;23;20386;-78
2021/03/21 11:32:00;;;;;;;4.80;1.60;;;;;;;17.75;56.06;102726.38;6260568;23;20023;-78
2021/03/21 11:34:33;;;;;;;5.75;1.60;;;;;;;17.76;56.19;102730.72;6250218;23;20083;-78
2021/03/21 11:37:08;;;;;;;4.10;1.50;;;;;;;17.71;56.18;102729.75;6221186;22;625549;-78
2021/03/21 11:39:44;;;;;;;3.30;1.45;;;;;;;17.72;56.26;102726.28;6250479;23;20028;-78
2021/03/21 11:42:21;;;;;;;4.68;1.60;;;;;;;17.74;55.97;102722.00;6248889;22;20090;-78
2021/03/21 11:44:50;;;;;;;3.13;1.33;;;;;;;17.76;56.10;102723.78;6250177;22;20004;-78
2021/03/21 11:47:24;;;;;;;4.57;1.55;;;;;;;17.79;56.09;102726.47;6251110;22;20451;-77
2021/03/21 11:49:51;;;;;;;4.55;1.48;;;;;;;17.79;56.10;102725.56;6248919;23;20073;-77
2021/03/21 11:52:17;;;;;;;3.42;1.42;;;;;;;17.78;56.03;102732.50;6247307;23;20008;-78
2021/03/21 11:54:44;;;;;;;3.92;1.38;;;;;;;17.79;56.00;102729.06;6251910;22;20000;-78
2021/03/21 11:57:15;;;;;;;3.60;1.30;;;;;;;17.82;55.97;102729.16;6252026;23;20004;-79
2021/03/21 11:59:51;;;;;;;4.57;1.20;;;;;;;17.83;55.95;102717.91;6252194;22;20004;-78
2021/03/21 12:02:33;;;;;;;5.78;1.33;;;;;;;17.83;55.79;102715.28;6251028;23;20043;-78
2021/03/21 12:05:02;;;;;;;4.15;1.50;;;;;;;17.84;55.95;102716.16;6254282;22;20004;-78
2021/03/21 12:07:30;;;;;;;4.72;1.55;;;;;;;17.85;55.52;102716.16;6255316;23;20336;-79
2021/03/21 12:09:56;;;;;;;3.15;1.30;;;;;;;17.84;55.82;102714.44;6262871;22;20001;-77
2021/03/21 12:12:42;;;;;;;4.15;1.55;;;;;;;17.87;55.58;102717.06;6262068;22;20037;-79
2021/03/21 12:15:37;;;;;;;4.95;1.65;;;;;;;17.87;55.85;102721.41;6266240;22;20004;-79
2021/03/21 12:18:17;;;;;;;;;;;;;;;17.91;55.83;102720.63;6268441;22;20015;-79
2021/03/21 12:20:47;;;;;;;6.40;1.70;;;;;;;17.94;55.57;102722.41;6251543;22;20274;-78
2021/03/21 12:23:43;;;;;;;4.18;1.60;;;;;;;17.94;55.71;102727.63;6247636;23;20004;-79
2021/03/21 12:26:15;;;;;;;5.10;1.70;;;;;;;17.94;55.73;102720.69;6251937;22;20011;-79